createdAt,value
2023-01-23T00:03:56.371Z,102099.75
2023-01-23T00:08:57.759Z,102106.13
2023-01-23T00:13:59.012Z,102110.28
2023-01-23T00:19:00.273Z,102095.75
2023-01-23T00:24:01.846Z,102089.94
2023-01-23T00:29:03.238Z,102094.50
2023-01-23T00:34:04.605Z,102096.50
2023-01-23T00:39:06.663Z,102105.88
2023-01-23T00:44:07.945Z,102103.91
2023-01-23T00:49:09.208Z,102108.47
2023-01-23T00:54:10.457Z,102116.56
2023-01-23T00:59:11.681Z,102107.34
2023-01-23T01:04:13.020Z,102115.31
2023-01-23T01:09:15.400Z,102109.34
2023-01-23T01:14:16.653Z,102121.31
2023-01-23T01:19:18.397Z,102124.50
2023-01-23T01:24:19.569Z,102130.47
2023-01-23T01:29:20.820Z,102129.31
2023-01-23T01:34:23.618Z,102121.91
2023-01-23T01:39:24.971Z,102130.91
2023-01-23T01:44:26.304Z,102124.94
2023-01-23T01:49:29.703Z,102127.09
2023-01-23T01:54:30.890Z,102132.03
2023-01-23T01:59:32.213Z,102137.56
2023-01-23T02:04:33.516Z,102145.97
2023-01-23T02:09:34.755Z,102148.72
2023-01-23T02:14:36.152Z,102147.31
2023-01-23T02:19:37.397Z,102143.13
2023-01-23T02:24:39.169Z,102138.75
2023-01-23T02:29:40.402Z,102141.13
2023-01-23T02:34:41.628Z,102142.75
2023-01-23T02:39:42.893Z,102137.56
2023-01-23T02:44:44.392Z,102136.19
2023-01-23T02:49:47.691Z,102135.53
2023-01-23T02:54:49.151Z,102144.13
2023-01-23T03:00:09.190Z,102147.69
2023-01-23T03:05:10.481Z,102148.06
2023-01-23T03:10:11.758Z,102143.63
2023-01-23T03:15:13.003Z,102151.75
2023-01-23T03:20:14.206Z,102150.88
2023-01-23T03:25:15.468Z,102137.88
2023-01-23T03:30:17.099Z,102146.19
2023-01-23T03:35:19.756Z,102143.88
2023-01-23T03:40:39.669Z,102143.47
2023-01-23T03:45:40.972Z,102163.38
2023-01-23T03:50:42.284Z,102161.31
2023-01-23T03:55:50.911Z,102162.03
2023-01-23T04:00:52.134Z,102164.53
2023-01-23T04:05:53.340Z,102170.72
2023-01-23T04:10:54.557Z,102156.25
2023-01-23T04:15:55.801Z,102159.75
2023-01-23T04:20:57.067Z,102161.16
2023-01-23T04:25:58.301Z,102173.22
2023-01-23T04:36:14.738Z,102156.38
2023-01-23T04:41:15.956Z,102166.69
2023-01-23T04:46:17.289Z,102169.06
2023-01-23T04:51:18.606Z,102169.34
2023-01-23T04:56:19.809Z,102167.03
2023-01-23T05:01:23.333Z,102171.41
2023-01-23T05:06:24.644Z,102174.44
2023-01-23T05:11:25.958Z,102166.50
2023-01-23T05:16:29.461Z,102164.09
2023-01-23T05:21:30.686Z,102172.19
2023-01-23T05:26:31.897Z,102171.16
2023-01-23T05:31:33.427Z,102173.09
2023-01-23T05:36:34.674Z,102171.16
2023-01-23T05:41:35.907Z,102186.66
2023-01-23T05:46:37.220Z,102186.03
2023-01-23T05:51:39.810Z,102195.38
2023-01-23T05:56:41.068Z,102196.09
2023-01-23T06:01:42.298Z,102202.41
2023-01-23T06:06:43.528Z,102194.59
2023-01-23T06:11:44.839Z,102197.81
2023-01-23T06:16:46.097Z,102194.16
2023-01-23T06:21:47.347Z,102200.69
2023-01-23T06:26:48.564Z,102217.81
2023-01-23T06:31:49.845Z,102223.47
2023-01-23T06:36:53.631Z,102227.47
2023-01-23T06:41:57.636Z,102226.69
2023-01-23T06:47:01.271Z,102243.34
2023-01-23T06:52:02.533Z,102250.69
2023-01-23T06:57:03.765Z,102248.13
2023-01-23T07:02:04.992Z,102264.91
2023-01-23T07:07:06.220Z,102277.44
2023-01-23T07:12:07.577Z,102286.84
2023-01-23T07:17:08.791Z,102292.28
2023-01-23T07:22:11.190Z,102288.72
2023-01-23T07:27:12.433Z,102296.91
2023-01-23T07:32:13.706Z,102306.19
2023-01-23T07:37:17.560Z,102311.78
2023-01-23T07:42:18.785Z,102311.09
2023-01-23T07:47:20.002Z,102308.94
2023-01-23T07:52:21.248Z,102313.56
2023-01-23T07:57:22.506Z,102306.16
2023-01-23T08:02:23.735Z,102299.84
2023-01-23T08:07:25.088Z,102310.00
2023-01-23T08:12:28.690Z,102304.09
2023-01-23T08:17:29.895Z,102304.34
2023-01-23T08:22:31.088Z,102316.94
2023-01-23T08:27:32.266Z,102323.91
2023-01-23T08:32:33.460Z,102310.38
2023-01-23T08:37:34.668Z,102320.66
2023-01-23T08:42:35.881Z,102314.75
2023-01-23T08:47:38.100Z,102323.56
2023-01-23T08:52:39.316Z,102322.03
2023-01-23T08:57:40.479Z,102326.47
2023-01-23T09:02:41.755Z,102313.50
2023-01-23T09:07:42.985Z,102327.09
2023-01-23T09:12:44.270Z,102328.78
2023-01-23T09:17:45.567Z,102326.59
2023-01-23T09:22:46.807Z,102333.47
2023-01-23T09:27:48.069Z,102336.13
2023-01-23T09:32:49.243Z,102329.56
2023-01-23T09:38:04.169Z,102336.97
2023-01-23T09:43:06.920Z,102338.63
2023-01-23T09:48:08.142Z,102349.44
2023-01-23T09:53:09.395Z,102363.69
2023-01-23T09:58:10.570Z,102360.56
2023-01-23T10:03:11.775Z,102369.00
2023-01-23T10:08:13.352Z,102366.41
2023-01-23T10:13:16.523Z,102359.66
2023-01-23T10:18:17.958Z,102368.50
2023-01-23T10:23:19.288Z,102361.69
2023-01-23T10:28:20.543Z,102366.88
2023-01-23T10:33:21.750Z,102366.94
2023-01-23T10:38:28.806Z,102362.94
2023-01-23T10:43:30.306Z,102370.56
2023-01-23T10:48:31.603Z,102365.22
2023-01-23T10:53:32.888Z,102366.88
2023-01-23T10:58:34.289Z,102361.13
2023-01-23T11:03:35.528Z,102360.16
2023-01-23T11:08:36.867Z,102356.03
2023-01-23T11:13:38.085Z,102353.63
2023-01-23T11:18:39.343Z,102347.84
2023-01-23T11:23:40.589Z,102343.91
2023-01-23T11:28:41.845Z,102344.13
2023-01-23T11:33:44.342Z,102332.34
2023-01-23T11:38:52.588Z,102326.16
2023-01-23T11:43:54.420Z,102314.63
2023-01-23T11:48:59.231Z,102311.84
2023-01-23T11:54:00.442Z,102309.03
2023-01-23T11:59:01.622Z,102298.28
2023-01-23T12:04:03.010Z,102297.91
2023-01-23T12:09:04.266Z,102301.53
2023-01-23T12:14:05.664Z,102306.31
2023-01-23T12:19:06.936Z,102307.72
2023-01-23T12:24:08.187Z,102314.50
2023-01-23T12:29:09.393Z,102312.34
2023-01-23T12:34:10.597Z,102315.75
2023-01-23T12:39:11.914Z,102315.94
2023-01-23T12:44:13.148Z,102316.72
2023-01-23T12:49:14.388Z,102311.13
2023-01-23T12:54:16.238Z,102308.31
2023-01-23T12:59:17.723Z,102303.13
2023-01-23T13:04:18.996Z,102311.34
2023-01-23T13:09:20.182Z,102327.34
2023-01-23T13:14:21.877Z,102323.16
2023-01-23T13:19:41.746Z,102319.50
2023-01-23T13:25:01.620Z,102321.47
2023-01-23T13:30:03.449Z,102330.31
2023-01-23T13:35:04.802Z,102327.09
2023-01-23T13:40:06.897Z,102328.50
2023-01-23T13:45:08.297Z,102339.25
2023-01-23T14:22:19.768Z,102336.78
2023-01-23T14:27:28.175Z,102350.72
2023-01-23T14:32:30.126Z,102345.31
2023-01-23T14:37:31.380Z,102347.28
2023-01-23T14:42:33.771Z,102354.03
2023-01-23T14:47:35.346Z,102354.00
2023-01-23T14:52:37.191Z,102346.19
2023-01-23T14:57:38.388Z,102350.38
2023-01-23T15:02:40.319Z,102357.59
2023-01-23T15:07:41.578Z,102357.78
2023-01-23T15:12:42.789Z,102359.75
2023-01-23T15:17:44.005Z,102360.69
2023-01-23T15:22:45.237Z,102369.91
2023-01-23T15:27:46.685Z,102366.66
2023-01-23T15:32:47.895Z,102359.66
2023-01-23T15:37:49.163Z,102357.84
2023-01-23T15:42:50.342Z,102357.44
2023-01-23T15:47:51.537Z,102361.59
2023-01-23T15:52:52.777Z,102368.56
2023-01-23T15:57:53.998Z,102361.56
2023-01-23T16:02:57.273Z,102362.94
2023-01-23T16:08:03.201Z,102360.50
2023-01-23T16:13:06.988Z,102356.69
2023-01-23T16:18:08.266Z,102367.06
2023-01-23T16:23:15.167Z,102368.88
2023-01-23T16:28:16.700Z,102363.06
2023-01-23T16:33:17.916Z,102351.88
2023-01-23T16:38:19.329Z,102348.28
2023-01-23T16:43:20.620Z,102343.72
2023-01-23T16:48:27.147Z,102347.28
2023-01-23T16:53:29.384Z,102341.34
2023-01-23T16:58:30.889Z,102339.72
2023-01-23T17:03:32.076Z,102341.72
2023-01-23T17:08:33.291Z,102348.53
2023-01-23T17:13:35.766Z,102346.16
2023-01-23T17:18:37.054Z,102353.34
2023-01-23T17:23:38.305Z,102359.72
2023-01-23T17:28:39.980Z,102362.91
2023-01-23T17:33:41.177Z,102364.72
2023-01-23T17:38:42.369Z,102370.88
2023-01-23T17:43:44.692Z,102359.88
2023-01-23T17:48:48.790Z,102366.13
2023-01-23T17:53:51.097Z,102361.13
2023-01-23T17:58:52.334Z,102357.09
2023-01-23T18:03:53.583Z,102348.53
2023-01-23T18:08:54.977Z,102352.53
2023-01-23T18:13:56.161Z,102356.94
2023-01-23T18:18:57.396Z,102353.16
2023-01-23T18:23:58.674Z,102359.56
2023-01-23T18:28:59.874Z,102350.97
2023-01-23T18:34:01.302Z,102349.75
2023-01-23T18:39:02.639Z,102355.31
2023-01-23T18:44:03.814Z,102354.50
2023-01-23T18:49:05.011Z,102350.53
2023-01-23T18:54:07.154Z,102345.50
2023-01-23T18:59:12.396Z,102347.50
2023-01-23T19:04:14.362Z,102351.25
2023-01-23T19:09:15.587Z,102341.84
2023-01-23T19:14:16.783Z,102348.06
2023-01-23T19:19:19.735Z,102356.81
2023-01-23T19:24:21.335Z,102363.03
2023-01-23T19:29:23.320Z,102371.78
2023-01-23T19:34:24.716Z,102377.16
2023-01-23T19:39:25.937Z,102382.53
2023-01-23T19:44:28.843Z,102402.31
2023-01-23T19:49:30.148Z,102417.88
2023-01-23T19:54:31.598Z,102415.28
2023-01-23T19:59:33.027Z,102412.69
2023-01-23T20:04:34.401Z,102412.69
2023-01-23T20:09:35.607Z,102431.91
2023-01-23T20:14:36.837Z,102433.09
2023-01-23T20:19:38.315Z,102433.88
2023-01-23T20:24:39.549Z,102438.88
2023-01-23T20:29:40.772Z,102447.84
2023-01-23T20:34:42.036Z,102452.03
2023-01-23T20:39:43.247Z,102436.66
2023-01-23T20:44:44.434Z,102435.03
2023-01-23T20:49:45.631Z,102439.88
2023-01-23T20:54:46.873Z,102440.03
2023-01-23T20:59:48.096Z,102439.25
2023-01-23T21:04:49.369Z,102433.09
2023-01-23T21:09:50.591Z,102436.84
2023-01-23T21:14:51.783Z,102434.06
2023-01-23T21:19:53.000Z,102429.06
2023-01-23T21:24:54.280Z,102418.50
2023-01-23T21:29:55.575Z,102420.91
2023-01-23T21:34:56.912Z,102418.69
2023-01-23T21:39:58.184Z,102412.31
2023-01-23T21:44:59.428Z,102408.72
2023-01-23T21:50:00.644Z,102413.91
2023-01-23T21:55:01.809Z,102405.34
2023-01-23T22:00:21.888Z,102408.53
2023-01-23T22:05:23.375Z,102415.16
2023-01-23T22:10:24.900Z,102410.94
2023-01-23T22:15:28.174Z,102405.38
2023-01-23T22:20:29.358Z,102412.56
2023-01-23T22:25:30.615Z,102420.53
2023-01-23T22:30:31.828Z,102411.56
2023-01-23T22:35:33.025Z,102409.16
2023-01-23T22:40:34.499Z,102415.78
2023-01-23T22:45:35.743Z,102408.00
2023-01-23T22:50:36.952Z,102405.38
2023-01-23T22:55:38.199Z,102402.78
2023-01-23T23:00:39.405Z,102414.56
2023-01-23T23:05:40.615Z,102409.19
2023-01-23T23:10:48.391Z,102413.59
2023-01-23T23:15:49.621Z,102411.63
2023-01-23T23:20:50.883Z,102414.41
2023-01-23T23:25:52.601Z,102407.63
2023-01-23T23:30:53.808Z,102412.41
2023-01-23T23:35:57.462Z,102412.41
2023-01-23T23:40:58.678Z,102404.00
2023-01-23T23:45:59.929Z,102407.63
2023-01-23T23:51:01.204Z,102397.59
2023-01-23T23:56:04.475Z,102400.19
